Meppen Air Base

ETWM · 下萨克森, 德国

罗盘
风向 的 风向 090° Meppen Air Base 6/24
风: 4 kt, 2 beaufort

3 kt

2 kt
改变
0 1.000 2.000 3.000 4.000 5.000
BKN 900 ft
BKN 3.000 ft
METAR ETNT 010920Z 09004KT 4500 BR BKN009 BKN030 05/04 Q1029 BLACKGRN

METAR Meppen Air Base - ETWM

Meppen Air Base是,德国中的小机场。 该机场有一条跑道: 6/24. 该领域的国际民航组织标志是ETWM.

这份报告是针对2022年12月1日 10:20, 当地时间在Wittmundhafen Air Base进行的。

机场观察

风向为090°,速度为4 kt。

可见度为4,5 km。

有碎云在900 ft的高度 和 碎云在3.000 ft的高度。 破损或更高的上限为900 ft。

当前天气为薄雾。 温度为5 °C,阵风为2 °C。 露点为4 °C,相对湿度为93%。 海平面上的气压为1029 hPa (QNH)。

白天

今天,太阳从08:19升起,在16:19降落。 这适用于Meppen Air Base,世界夏令时可能有所不同。 当地时间与世界标准时间之间的时差为+1 小时。 当前,没有夏令时有效。

公司介绍

我们没有关于这个机场的公司信息。

体会

到Vliegles.nl去找飞行课程,跳伞和其他飞行体验。 浏览页面,了解Meppen Air Base附近所有可用的活动。 你也可以使用搜索功能来寻找你所在地附近的特定飞行课程、跳伞或其他飞行体验。

跑道

Id 标题 侧风 逆风 侧风 %
6/24 057°-237° 2 kt 3 kt 54 %

逆风成分最大的方向会被突出显示,并用于横风计算。 这并不一定意味着这个方向在使用。

乌云

900 ft BKN 碎云
3.000 ft BKN 碎云

温度 & 天气

天气 薄雾
温度 5 °C
露点 4 °C
相对湿度 93%
风寒 2 °C
Kp-index 3 (0-9)

白天

日出
08:22
中午
12:18
日落
16:14 (4:44)

小工具

你想在你的网站上有一个关于Meppen Air Base的当前航空天气(METAR)的小部件吗?

显示HTML代码

我们和第三方通过cookies跟踪您在我们网站上的互联网行为。如果你继续,我们认为你同意我们的饼干政策